Time;durP1;ratioP1;P1;durP2;ratioP2;P2;SDS_P1;SDS_P2;PMS_P1;PMS_P2;Temp;Humidity;BMP_temperature;BMP_pressure;BME280_temperature;BME280_humidity;BME280_pressure;Samples;Min_cycle;Max_cycle;Signal;HPM_P1;HPM_P2
2023/08/08 00:01:44;;;;;;;2.50;1.93;;;13.00;99.90;;;;;;5086465;28;20375;-80
2023/08/08 00:04:10;;;;;;;2.50;1.90;;;13.00;99.90;;;;;;5071545;28;20424;-79
2023/08/08 00:06:36;;;;;;;2.40;1.90;;;13.10;99.90;;;;;;5064948;28;20381;-79
2023/08/08 00:09:03;;;;;;;2.20;1.90;;;12.90;99.90;;;;;;5067917;28;20945;-80
2023/08/08 00:11:29;;;;;;;2.70;1.90;;;12.30;99.90;;;;;;5085505;28;20540;-80
2023/08/08 00:13:55;;;;;;;2.05;1.80;;;12.70;99.90;;;;;;5086104;28;20382;-79
2023/08/08 00:16:21;;;;;;;2.60;1.80;;;12.80;99.90;;;;;;5070509;28;20398;-80
2023/08/08 00:18:49;;;;;;;2.90;1.93;;;12.80;99.90;;;;;;5066428;28;20443;-80
2023/08/08 00:21:15;;;;;;;2.80;1.98;;;12.80;99.90;;;;;;5065442;28;20396;-79
2023/08/08 00:23:40;;;;;;;3.03;1.57;;;12.70;99.90;;;;;;5064956;28;20401;-77
2023/08/08 00:26:06;;;;;;;2.50;1.90;;;12.60;99.90;;;;;;5075103;28;20388;-77
2023/08/08 00:28:31;;;;;;;3.23;1.90;;;12.70;99.90;;;;;;5087739;28;20883;-77
2023/08/08 00:30:57;;;;;;;3.60;2.00;;;12.60;99.90;;;;;;5087517;28;20385;-77
2023/08/08 00:33:22;;;;;;;1.85;1.75;;;12.50;99.90;;;;;;5088599;28;20396;-79
2023/08/08 00:35:48;;;;;;;3.10;2.00;;;12.50;99.90;;;;;;5086917;28;20405;-78
2023/08/08 00:38:13;;;;;;;3.53;2.10;;;12.50;99.90;;;;;;5090813;28;20974;-78
2023/08/08 00:40:39;;;;;;;1.73;1.63;;;12.50;99.90;;;;;;5087453;28;20401;-78
2023/08/08 00:43:04;;;;;;;2.88;2.20;;;12.30;99.90;;;;;;5086811;28;20499;-77
2023/08/08 00:45:30;;;;;;;2.67;1.70;;;12.40;99.90;;;;;;5087199;28;20398;-78
2023/08/08 00:47:56;;;;;;;2.40;1.80;;;12.40;99.90;;;;;;5072287;28;20455;-79
2023/08/08 00:50:22;;;;;;;3.03;1.90;;;11.70;99.90;;;;;;5070720;28;20963;-79
2023/08/08 00:52:48;;;;;;;2.00;1.90;;;12.20;99.90;;;;;;5069895;28;20381;-79
2023/08/08 00:55:14;;;;;;;2.20;2.00;;;12.10;99.90;;;;;;5073194;28;20404;-77
2023/08/08 00:57:40;;;;;;;2.97;2.20;;;12.10;99.90;;;;;;5069137;28;20479;-78
2023/08/08 01:00:09;;;;;;;2.30;1.80;;;12.10;99.90;;;;;;5074547;28;20382;-78
2023/08/08 01:02:34;;;;;;;4.03;2.20;;;12.20;99.90;;;;;;5109513;28;20393;-79
2023/08/08 01:05:01;;;;;;;2.22;1.83;;;12.20;99.90;;;;;;5089204;28;20411;-78
2023/08/08 01:07:39;;;;;;;2.40;2.00;;;12.00;99.90;;;;;;5088501;28;20388;-79
2023/08/08 01:10:11;;;;;;;1.55;1.45;;;12.10;99.90;;;;;;5069207;28;20408;-78
2023/08/08 01:12:41;;;;;;;3.03;1.98;;;12.20;99.90;;;;;;5068986;28;20381;-78
2023/08/08 01:15:08;;;;;;;3.50;1.90;;;12.20;99.90;;;;;;5072920;28;20440;-78
2023/08/08 01:17:35;;;;;;;2.00;1.90;;;12.20;99.90;;;;;;5088663;28;20388;-78
2023/08/08 01:20:04;;;;;;;2.40;2.00;;;12.20;99.90;;;;;;5087136;28;20391;-78
2023/08/08 01:22:42;;;;;;;1.98;1.77;;;12.20;99.90;;;;;;5072722;28;20395;-78
2023/08/08 01:25:09;;;;;;;4.13;1.92;;;12.20;99.90;;;;;;5083717;28;20458;-79
2023/08/08 01:27:35;;;;;;;2.63;1.73;;;12.20;99.90;;;;;;5078112;28;20527;-79
2023/08/08 01:30:00;;;;;;;2.30;2.10;;;12.10;99.90;;;;;;5087955;28;20394;-78
2023/08/08 01:32:26;;;;;;;2.00;1.80;;;12.30;99.90;;;;;;5087729;28;20399;-78
2023/08/08 01:34:52;;;;;;;2.20;1.80;;;12.30;99.90;;;;;;5085028;28;20397;-79
2023/08/08 01:37:30;;;;;;;2.88;2.00;;;12.20;99.90;;;;;;5065281;28;20893;-79
2023/08/08 01:39:59;;;;;;;1.83;1.63;;;12.00;99.90;;;;;;5080623;28;20396;-80
2023/08/08 01:42:25;;;;;;;4.30;1.50;;;12.10;99.90;;;;;;5087349;28;20383;-78
2023/08/08 01:44:52;;;;;;;5.20;1.70;;;11.90;99.90;;;;;;5101240;28;20478;-79
2023/08/08 01:47:18;;;;;;;3.88;1.60;;;12.20;99.90;;;;;;5087733;28;20384;-79
2023/08/08 01:49:43;;;;;;;1.98;1.67;;;12.00;99.90;;;;;;5068379;28;20415;-79
2023/08/08 01:52:09;;;;;;;2.80;1.93;;;12.10;99.90;;;;;;5066209;28;20385;-79
2023/08/08 01:54:34;;;;;;;1.73;1.63;;;12.00;99.90;;;;;;5068401;28;20388;-79
2023/08/08 01:57:00;;;;;;;4.87;1.73;;;12.00;99.90;;;;;;5067686;28;20482;-78
2023/08/08 01:59:25;;;;;;;2.00;1.70;;;11.90;99.90;;;;;;5082321;28;20403;-80
2023/08/08 02:01:51;;;;;;;2.60;1.80;;;11.90;99.90;;;;;;5083231;28;20433;-79
2023/08/08 02:04:16;;;;;;;1.70;1.60;;;11.90;99.90;;;;;;5079521;28;20415;-79
2023/08/08 02:06:42;;;;;;;1.95;1.50;;;11.90;99.90;;;;;;5085625;28;20451;-78
2023/08/08 02:09:07;;;;;;;1.97;1.77;;;11.90;99.90;;;;;;5086237;28;20376;-78
2023/08/08 02:11:33;;;;;;;1.97;1.60;;;11.80;99.90;;;;;;5085490;28;20461;-78
2023/08/08 02:13:58;;;;;;;1.88;1.67;;;11.90;99.90;;;;;;5086557;28;20419;-77
2023/08/08 02:16:24;;;;;;;2.83;1.83;;;11.70;99.90;;;;;;5085472;28;20418;-78
2023/08/08 02:18:49;;;;;;;2.10;1.90;;;11.70;99.90;;;;;;5086026;28;20400;-78
2023/08/08 02:21:15;;;;;;;2.37;2.17;;;11.70;99.90;;;;;;5087135;28;20425;-79
2023/08/08 02:23:40;;;;;;;1.80;1.50;;;11.60;99.90;;;;;;5089080;28;20462;-78
2023/08/08 02:26:06;;;;;;;2.57;2.37;;;11.60;99.90;;;;;;5088775;28;20380;-78
2023/08/08 02:28:31;;;;;;;2.50;2.00;;;11.40;99.90;;;;;;5087503;28;20452;-79
2023/08/08 02:30:57;;;;;;;2.25;1.30;;;11.60;99.90;;;;;;5088660;28;20383;-78
2023/08/08 02:33:23;;;;;;;3.20;1.80;;;11.40;99.90;;;;;;5087196;28;20610;-79
2023/08/08 02:35:48;;;;;;;2.05;1.90;;;11.50;99.90;;;;;;5088226;28;20434;-79
2023/08/08 02:38:14;;;;;;;2.60;1.60;;;11.50;99.90;;;;;;5087789;28;20387;-79
2023/08/08 02:40:39;;;;;;;2.10;1.90;;;11.10;99.90;;;;;;5087265;28;20388;-78
2023/08/08 02:43:05;;;;;;;3.08;1.60;;;11.40;99.90;;;;;;5072813;28;20401;-78
2023/08/08 02:45:30;;;;;;;3.10;1.92;;;11.20;99.90;;;;;;5078670;28;20404;-78
2023/08/08 02:47:56;;;;;;;2.70;2.07;;;11.40;99.90;;;;;;5086167;28;20383;-78
2023/08/08 02:50:21;;;;;;;4.23;2.00;;;11.30;99.90;;;;;;5086281;28;20486;-78
2023/08/08 02:52:47;;;;;;;3.20;1.90;;;11.30;99.90;;;;;;5086464;28;20407;-79
2023/08/08 02:55:13;;;;;;;2.88;1.75;;;11.30;99.90;;;;;;5077619;28;20403;-78
2023/08/08 02:57:40;;;;;;;1.90;1.70;;;11.10;99.90;;;;;;5084058;28;20495;-79
2023/08/08 03:00:08;;;;;;;1.73;1.57;;;11.20;99.90;;;;;;5086502;28;20451;-79
2023/08/08 03:02:34;;;;;;;1.70;1.60;;;11.30;99.90;;;;;;5087098;28;20447;-79
2023/08/08 03:04:59;;;;;;;2.60;1.90;;;11.00;99.90;;;;;;5076128;28;20419;-79
2023/08/08 03:07:25;;;;;;;3.50;1.95;;;11.20;99.90;;;;;;5086591;28;20379;-78
2023/08/08 03:09:50;;;;;;;3.50;1.70;;;11.30;99.90;;;;;;5074217;28;20390;-78
2023/08/08 03:12:16;;;;;;;2.87;1.77;;;11.20;99.90;;;;;;5064627;28;20386;-79
2023/08/08 03:14:41;;;;;;;2.17;1.88;;;11.20;99.90;;;;;;5064982;28;20395;-78
2023/08/08 03:17:07;;;;;;;1.70;1.60;;;10.80;99.90;;;;;;5064808;28;20420;-78
2023/08/08 03:19:32;;;;;;;1.80;1.70;;;11.10;99.90;;;;;;5070333;28;20900;-79
2023/08/08 03:21:58;;;;;;;2.50;1.70;;;11.10;99.90;;;;;;5083350;28;20954;-78
2023/08/08 03:24:23;;;;;;;4.20;1.90;;;11.10;99.90;;;;;;5084550;28;20467;-78
2023/08/08 03:26:49;;;;;;;3.00;1.95;;;11.10;99.90;;;;;;5082886;28;20752;-79
2023/08/08 03:29:14;;;;;;;3.37;1.70;;;11.30;99.90;;;;;;5085235;28;20380;-78
2023/08/08 03:31:40;;;;;;;3.17;1.63;;;11.10;99.90;;;;;;5084108;28;20395;-81
2023/08/08 03:34:06;;;;;;;6.03;1.97;;;11.10;99.90;;;;;;5085214;28;20441;-80
2023/08/08 03:36:31;;;;;;;2.90;1.70;;;11.10;99.90;;;;;;5085072;28;20385;-79
2023/08/08 03:38:57;;;;;;;2.25;1.80;;;11.00;99.90;;;;;;5082166;28;20426;-79
2023/08/08 03:41:22;;;;;;;2.43;1.80;;;10.80;99.90;;;;;;5080439;28;20398;-80
2023/08/08 03:43:48;;;;;;;2.03;1.80;;;11.00;99.90;;;;;;5080933;28;20399;-80
2023/08/08 03:46:13;;;;;;;3.43;2.20;;;10.80;99.90;;;;;;5082064;28;20460;-79
2023/08/08 03:48:39;;;;;;;3.33;2.25;;;10.80;99.90;;;;;;5081302;28;20751;-79
2023/08/08 03:51:05;;;;;;;3.90;2.08;;;10.90;99.90;;;;;;5081908;28;20812;-79
2023/08/08 03:53:31;;;;;;;3.45;1.80;;;10.90;99.90;;;;;;5081680;28;20397;-79
2023/08/08 03:55:56;;;;;;;2.47;1.80;;;11.00;99.90;;;;;;5081078;28;20395;-80
2023/08/08 03:58:22;;;;;;;2.90;1.50;;;11.00;99.90;;;;;;5079568;28;20392;-80
2023/08/08 04:00:48;;;;;;;5.00;1.90;;;10.80;99.90;;;;;;5080630;28;20423;-80
2023/08/08 04:03:14;;;;;;;2.13;1.50;;;11.90;99.90;;;;;;5076295;28;20421;-79
2023/08/08 04:05:41;;;;;;;2.37;1.70;;;10.80;99.90;;;;;;5062854;28;20429;-80
2023/08/08 04:08:06;;;;;;;2.65;1.88;;;10.00;99.90;;;;;;5081313;28;20380;-80
2023/08/08 04:10:32;;;;;;;2.30;1.90;;;10.70;99.90;;;;;;5079722;28;20751;-80
2023/08/08 04:12:57;;;;;;;2.10;1.90;;;10.50;99.90;;;;;;5080200;28;20391;-79
2023/08/08 04:15:23;;;;;;;3.15;2.10;;;10.70;99.90;;;;;;5080350;28;20387;-79
2023/08/08 04:17:49;;;;;;;2.93;1.80;;;10.80;99.90;;;;;;5081694;28;20383;-80
2023/08/08 04:20:14;;;;;;;2.20;1.70;;;10.70;99.90;;;;;;5079207;28;20494;-80
2023/08/08 04:22:40;;;;;;;2.83;1.90;;;10.80;99.90;;;;;;5070088;28;20391;-80
2023/08/08 04:25:06;;;;;;;4.25;1.73;;;10.70;99.90;;;;;;5081896;28;20407;-79
2023/08/08 04:27:32;;;;;;;2.72;2.10;;;10.80;99.90;;;;;;5079380;28;20816;-80
2023/08/08 04:29:57;;;;;;;2.50;1.87;;;10.80;99.90;;;;;;5083209;28;20383;-80
2023/08/08 04:32:23;;;;;;;2.75;2.25;;;10.80;99.90;;;;;;5077886;28;20401;-79
2023/08/08 04:34:48;;;;;;;3.70;2.30;;;10.80;99.90;;;;;;5060560;28;20392;-80
2023/08/08 04:37:14;;;;;;;2.40;1.77;;;10.80;99.90;;;;;;5059554;28;20393;-79
2023/08/08 04:39:39;;;;;;;3.10;1.90;;;10.80;99.90;;;;;;5061137;28;20449;-79
2023/08/08 04:42:05;;;;;;;3.20;1.90;;;10.60;99.90;;;;;;5079314;28;21080;-80
2023/08/08 04:44:30;;;;;;;6.53;1.90;;;10.80;99.90;;;;;;5081296;28;20430;-80
2023/08/08 04:46:56;;;;;;;4.33;1.90;;;10.80;99.90;;;;;;5087016;28;20766;-80
2023/08/08 04:49:21;;;;;;;2.80;1.90;;;10.70;99.90;;;;;;5081415;28;20390;-79
2023/08/08 04:51:47;;;;;;;2.40;1.70;;;10.80;99.90;;;;;;5063714;28;20389;-80
2023/08/08 04:54:12;;;;;;;2.05;1.90;;;10.80;99.90;;;;;;5073055;28;20392;-80
2023/08/08 04:56:38;;;;;;;2.40;1.90;;;10.80;99.90;;;;;;5080712;28;20985;-79
2023/08/08 04:59:04;;;;;;;3.70;1.90;;;10.50;99.90;;;;;;5080675;28;20390;-79
2023/08/08 05:01:29;;;;;;;3.27;2.00;;;10.50;99.90;;;;;;5080516;28;20389;-80
2023/08/08 05:03:55;;;;;;;2.50;2.00;;;;;;;;;;5070267;28;20413;-79
2023/08/08 05:06:21;;;;;;;2.30;2.10;;;10.80;99.90;;;;;;5071905;28;20376;-80
2023/08/08 05:08:46;;;;;;;2.75;1.90;;;10.80;99.90;;;;;;5080065;28;20388;-79
2023/08/08 05:11:12;;;;;;;2.80;2.17;;;10.90;99.90;;;;;;5080096;28;20395;-80
2023/08/08 05:13:37;;;;;;;3.43;1.80;;;10.20;99.90;;;;;;5083795;28;20785;-80
2023/08/08 05:16:03;;;;;;;2.10;1.90;;;10.80;99.90;;;;;;5084425;28;20439;-80
2023/08/08 05:18:28;;;;;;;2.80;1.97;;;10.90;99.90;;;;;;5085223;28;20426;-80
2023/08/08 05:20:54;;;;;;;3.50;2.00;;;10.80;99.90;;;;;;5078561;28;20408;-80
2023/08/08 05:23:20;;;;;;;2.60;1.67;;;;;;;;;;5074433;28;20392;-79
2023/08/08 05:25:45;;;;;;;3.40;2.10;;;11.10;99.90;;;;;;5075994;28;20403;-80
2023/08/08 05:28:11;;;;;;;2.00;1.80;;;11.10;99.90;;;;;;5083502;28;20399;-80
2023/08/08 05:30:36;;;;;;;2.80;2.20;;;11.20;99.90;;;;;;5083195;28;20383;-79
2023/08/08 05:33:02;;;;;;;2.20;1.80;;;11.30;99.90;;;;;;5082341;28;20419;-79
2023/08/08 05:35:27;;;;;;;2.10;1.90;;;11.40;99.90;;;;;;5087551;28;20399;-79
2023/08/08 05:37:53;;;;;;;2.28;2.08;;;11.20;99.90;;;;;;5088996;28;20464;-78
2023/08/08 05:40:19;;;;;;;3.80;1.83;;;11.50;99.90;;;;;;5088692;28;20771;-78
2023/08/08 05:42:44;;;;;;;5.47;2.00;;;11.40;99.90;;;;;;5084006;28;20383;-79
2023/08/08 05:45:10;;;;;;;2.37;1.70;;;10.80;99.90;;;;;;5068612;28;20492;-79
2023/08/08 05:47:35;;;;;;;2.35;2.10;;;11.60;99.90;;;;;;5083093;28;20392;-80
2023/08/08 05:50:02;;;;;;;4.35;1.90;;;10.90;99.90;;;;;;5085291;28;20484;-78
2023/08/08 05:52:27;;;;;;;2.58;1.90;;;11.90;99.90;;;;;;5083282;28;20395;-77
2023/08/08 05:54:53;;;;;;;4.50;1.92;;;11.90;99.90;;;;;;5081100;28;20383;-78
2023/08/08 05:57:18;;;;;;;2.70;1.75;;;12.00;99.90;;;;;;5063619;28;20393;-78
2023/08/08 05:59:44;;;;;;;3.10;1.90;;;12.10;99.90;;;;;;5064270;28;20403;-77
2023/08/08 06:02:10;;;;;;;3.80;2.05;;;12.20;99.90;;;;;;5069993;28;20387;-76
2023/08/08 06:04:36;;;;;;;2.53;1.60;;;12.20;99.90;;;;;;5068203;28;20411;-77
2023/08/08 06:07:01;;;;;;;1.60;1.40;;;12.40;99.90;;;;;;5065793;28;20416;-77
2023/08/08 06:09:28;;;;;;;1.83;1.70;;;12.50;99.90;;;;;;5065836;28;20399;-77
2023/08/08 06:11:53;;;;;;;3.00;1.65;;;12.50;99.90;;;;;;5064713;28;20393;-76
2023/08/08 06:14:19;;;;;;;1.70;1.40;;;12.70;99.90;;;;;;5067989;28;20411;-77
2023/08/08 06:16:46;;;;;;;3.60;1.70;;;12.70;99.90;;;;;;5065191;28;20414;-77
2023/08/08 06:19:13;;;;;;;2.97;1.80;;;12.50;99.90;;;;;;5067400;28;20391;-77
2023/08/08 06:21:39;;;;;;;1.98;1.65;;;13.90;99.90;;;;;;5076063;28;20392;-77
2023/08/08 06:24:04;;;;;;;3.25;1.75;;;12.70;99.90;;;;;;5076065;28;20411;-77
2023/08/08 06:26:30;;;;;;;2.70;1.70;;;12.90;99.90;;;;;;5070920;28;20429;-78
2023/08/08 06:28:55;;;;;;;2.10;1.80;;;12.90;99.90;;;;;;5073882;28;20744;-78
2023/08/08 06:31:22;;;;;;;1.70;1.60;;;12.90;99.90;;;;;;5078462;28;20375;-78
2023/08/08 06:33:47;;;;;;;3.87;1.80;;;13.10;99.90;;;;;;5077893;28;20387;-79
2023/08/08 06:36:13;;;;;;;2.20;1.60;;;12.90;99.90;;;;;;5086818;28;20467;-77
2023/08/08 06:38:38;;;;;;;3.88;1.50;;;13.40;99.90;;;;;;5074798;28;20399;-77
2023/08/08 06:41:04;;;;;;;2.55;1.75;;;13.50;99.90;;;;;;5078967;28;20380;-78
2023/08/08 06:43:30;;;;;;;3.00;1.70;;;13.50;99.90;;;;;;5070590;28;20384;-78
2023/08/08 06:45:56;;;;;;;1.90;1.50;;;13.60;99.90;;;;;;5065178;28;20386;-77
2023/08/08 06:48:21;;;;;;;2.92;1.85;;;13.60;99.90;;;;;;5066547;28;20424;-78
2023/08/08 06:50:47;;;;;;;2.30;1.60;;;13.80;99.90;;;;;;5066836;28;20384;-78
2023/08/08 06:53:12;;;;;;;3.00;1.87;;;13.90;99.90;;;;;;5069622;28;20440;-77
2023/08/08 06:55:38;;;;;;;2.38;1.50;;;13.90;99.90;;;;;;5070583;28;20379;-77
2023/08/08 06:58:03;;;;;;;2.03;1.23;;;14.00;99.90;;;;;;5074050;28;20394;-77
2023/08/08 07:00:29;;;;;;;2.40;1.60;;;14.10;99.90;;;;;;5074285;28;20415;-76
2023/08/08 07:02:55;;;;;;;3.25;1.95;;;14.30;99.90;;;;;;5072799;28;20396;-76
2023/08/08 07:05:22;;;;;;;2.40;1.40;;;14.40;99.90;;;;;;5065853;28;20753;-78
2023/08/08 07:07:51;;;;;;;1.70;1.45;;;14.50;99.90;;;;;;5067012;28;20763;-78
2023/08/08 07:10:17;;;;;;;2.45;1.10;;;14.70;99.90;;;;;;5077874;28;20482;-77
2023/08/08 07:12:42;;;;;;;2.40;1.60;;;14.30;99.90;;;;;;5083071;28;20462;-77
2023/08/08 07:15:09;;;;;;;1.35;1.10;;;15.00;99.90;;;;;;5081616;28;20375;-77
2023/08/08 07:17:34;;;;;;;1.80;1.60;;;15.20;99.90;;;;;;5082150;28;20471;-78
2023/08/08 07:20:00;;;;;;;3.50;1.40;;;15.20;99.90;;;;;;5071460;28;20937;-78
2023/08/08 07:22:26;;;;;;;1.92;1.33;;;15.40;99.90;;;;;;5072559;28;20466;-78
2023/08/08 07:24:51;;;;;;;1.90;1.27;;;15.40;99.90;;;;;;5071323;28;20496;-77
2023/08/08 07:27:17;;;;;;;3.13;1.50;;;15.50;99.90;;;;;;5070753;28;20819;-78
2023/08/08 07:29:43;;;;;;;2.00;1.10;;;15.50;99.90;;;;;;5074600;28;20384;-77
2023/08/08 07:32:08;;;;;;;3.53;1.60;;;15.50;99.90;;;;;;5068673;28;20393;-77
2023/08/08 07:34:34;;;;;;;3.97;1.77;;;15.60;99.90;;;;;;5072992;28;20382;-78
2023/08/08 07:36:59;;;;;;;1.90;1.48;;;15.60;99.90;;;;;;5064084;28;20399;-78
2023/08/08 07:39:25;;;;;;;1.30;1.20;;;15.70;99.90;;;;;;5070913;28;20413;-77
2023/08/08 07:41:52;;;;;;;1.90;1.50;;;15.70;99.90;;;;;;5063975;28;20450;-78
2023/08/08 07:44:17;;;;;;;1.48;1.35;;;15.80;99.90;;;;;;5065841;28;20401;-78
2023/08/08 07:46:43;;;;;;;3.30;1.67;;;15.90;99.90;;;;;;5074619;28;20386;-78
2023/08/08 07:49:09;;;;;;;1.50;1.20;;;16.00;99.90;;;;;;5074012;28;20398;-77
2023/08/08 07:51:35;;;;;;;1.40;1.30;;;16.70;99.90;;;;;;5074716;28;20390;-78
2023/08/08 07:54:01;;;;;;;1.60;1.20;;;16.30;99.90;;;;;;5074802;28;20740;-78
2023/08/08 07:56:26;;;;;;;2.70;1.20;;;16.40;99.90;;;;;;5074643;28;20398;-78
2023/08/08 07:58:52;;;;;;;2.30;1.17;;;16.60;99.90;;;;;;5068484;28;20425;-77
2023/08/08 08:01:18;;;;;;;1.80;1.20;;;17.10;99.90;;;;;;5073158;28;20407;-78
2023/08/08 08:03:44;;;;;;;2.10;1.25;;;16.50;99.90;;;;;;5065557;28;20503;-78
2023/08/08 08:06:09;;;;;;;2.03;1.27;;;17.20;99.90;;;;;;5074966;28;20419;-78
2023/08/08 08:08:35;;;;;;;1.80;1.20;;;17.20;99.90;;;;;;5077466;28;20847;-78
2023/08/08 08:11:02;;;;;;;4.30;1.40;;;17.50;99.90;;;;;;5072799;28;21121;-77
2023/08/08 08:13:27;;;;;;;3.10;1.33;;;17.60;99.90;;;;;;5073720;28;20457;-80
2023/08/08 08:15:53;;;;;;;1.23;1.13;;;17.70;99.90;;;;;;5072972;28;20383;-79
2023/08/08 08:18:19;;;;;;;2.23;1.33;;;17.70;99.90;;;;;;5071672;28;20388;-79
2023/08/08 08:20:46;;;;;;;2.13;1.33;;;17.80;99.90;;;;;;5074142;28;20390;-79
2023/08/08 08:23:11;;;;;;;1.50;1.10;;;18.00;99.90;;;;;;5073429;28;20457;-79
2023/08/08 08:25:37;;;;;;;2.78;1.50;;;17.90;99.90;;;;;;5082698;28;20937;-80
2023/08/08 08:28:03;;;;;;;1.10;1.00;;;18.10;99.90;;;;;;5074130;28;20399;-79
2023/08/08 08:30:28;;;;;;;2.00;1.47;;;18.10;99.90;;;;;;5077015;28;20387;-79
2023/08/08 08:32:54;;;;;;;1.90;1.50;;;18.40;99.90;;;;;;5078821;28;20459;-79
2023/08/08 08:35:20;;;;;;;2.90;1.20;;;18.80;99.90;;;;;;5080165;28;20399;-78
2023/08/08 08:37:46;;;;;;;1.08;0.88;;;18.00;99.90;;;;;;5078582;28;20396;-79
2023/08/08 08:40:11;;;;;;;2.53;1.35;;;18.70;99.90;;;;;;5078920;28;20383;-79
2023/08/08 08:42:38;;;;;;;1.90;1.00;;;18.70;99.90;;;;;;5073799;28;20410;-79
2023/08/08 08:45:05;;;;;;;1.93;1.20;;;18.70;99.90;;;;;;5071510;28;20414;-79
2023/08/08 08:47:32;;;;;;;1.65;1.55;;;18.70;99.90;;;;;;5076637;28;20883;-79
2023/08/08 08:49:58;;;;;;;1.63;1.15;;;18.90;99.90;;;;;;5075616;28;20965;-79
2023/08/08 08:52:24;;;;;;;2.30;1.30;;;18.10;99.90;;;;;;5064691;28;20404;-78
2023/08/08 08:54:52;;;;;;;1.80;1.00;;;18.80;99.90;;;;;;5074890;28;20397;-79
2023/08/08 08:57:19;;;;;;;1.30;1.20;;;18.50;99.90;;;;;;5069366;28;20565;-79
2023/08/08 08:59:45;;;;;;;1.88;1.10;;;19.00;99.90;;;;;;5070939;28;20391;-79
2023/08/08 09:02:11;;;;;;;1.70;0.90;;;19.10;99.90;;;;;;5067404;28;20423;-80
2023/08/08 09:04:37;;;;;;;1.20;0.90;;;19.20;99.90;;;;;;5063826;28;20508;-79
2023/08/08 09:07:06;;;;;;;1.02;0.93;;;19.10;99.90;;;;;;5069147;28;20396;-79
2023/08/08 09:09:32;;;;;;;2.00;1.20;;;19.10;99.90;;;;;;5064461;28;20454;-78
2023/08/08 09:11:58;;;;;;;1.42;0.90;;;19.30;99.90;;;;;;5066334;28;20403;-79
2023/08/08 09:14:26;;;;;;;2.60;1.10;;;19.50;99.90;;;;;;5073440;28;20495;-79
2023/08/08 09:16:53;;;;;;;1.20;1.10;;;19.40;99.90;;;;;;5073313;28;20853;-80
2023/08/08 09:19:19;;;;;;;1.60;1.40;;;19.40;99.90;;;;;;5073867;28;20553;-78
2023/08/08 09:21:45;;;;;;;2.78;1.30;;;19.50;99.90;;;;;;5074544;28;20467;-79
2023/08/08 09:24:11;;;;;;;1.33;1.00;;;19.50;99.90;;;;;;5080126;28;20415;-78
2023/08/08 09:26:37;;;;;;;2.00;1.17;;;19.40;99.90;;;;;;5081773;28;20380;-78
2023/08/08 09:29:03;;;;;;;1.20;1.10;;;19.60;99.90;;;;;;5074081;28;20424;-80
2023/08/08 09:31:29;;;;;;;1.42;1.20;;;19.50;99.90;;;;;;5067157;28;20918;-79
2023/08/08 09:34:01;;;;;;;1.00;0.90;;;19.60;99.90;;;;;;5072379;28;20438;-77
2023/08/08 09:36:26;;;;;;;2.35;0.90;;;19.70;99.90;;;;;;5071713;28;20483;-77
2023/08/08 09:38:53;;;;;;;2.22;1.40;;;19.80;99.90;;;;;;5067105;28;20946;-77
2023/08/08 09:41:21;;;;;;;1.50;1.10;;;19.50;99.90;;;;;;5072571;28;20406;-78
2023/08/08 09:43:48;;;;;;;1.92;1.40;;;19.50;99.90;;;;;;5074435;28;20404;-77
2023/08/08 09:46:15;;;;;;;2.30;1.30;;;19.20;99.90;;;;;;5056890;28;20401;-78
2023/08/08 09:48:41;;;;;;;1.50;1.10;;;19.70;99.90;;;;;;5067152;28;20395;-77
2023/08/08 09:51:08;;;;;;;1.80;1.40;;;19.70;99.90;;;;;;5071144;28;20501;-78
2023/08/08 09:53:34;;;;;;;1.70;1.10;;;19.80;99.90;;;;;;5070045;28;20768;-78
2023/08/08 09:56:02;;;;;;;2.63;1.30;;;19.70;99.90;;;;;;5072064;28;20437;-78
2023/08/08 09:58:28;;;;;;;1.40;1.20;;;19.80;99.90;;;;;;5072492;28;20412;-77
2023/08/08 10:00:53;;;;;;;2.20;1.10;;;19.00;99.90;;;;;;5072896;28;20815;-77
2023/08/08 10:03:19;;;;;;;1.87;1.17;;;19.60;99.90;;;;;;5066191;28;20443;-77
2023/08/08 10:05:45;;;;;;;1.45;1.13;;;20.20;99.90;;;;;;5070325;28;20891;-77
2023/08/08 10:08:15;;;;;;;2.78;1.45;;;19.80;99.90;;;;;;5079512;28;20391;-77
2023/08/08 10:10:41;;;;;;;1.60;1.10;;;19.90;99.90;;;;;;5066720;28;20396;-78
2023/08/08 10:13:07;;;;;;;1.40;1.20;;;20.20;99.90;;;;;;5073089;28;20801;-77
2023/08/08 10:15:37;;;;;;;1.25;1.00;;;20.10;99.90;;;;;;5083177;28;20411;-78
2023/08/08 10:18:03;;;;;;;1.57;1.00;;;20.90;99.90;;;;;;5069517;28;20394;-78
2023/08/08 10:20:32;;;;;;;0.90;0.90;;;20.50;99.90;;;;;;5070946;28;20453;-79
2023/08/08 10:23:00;;;;;;;1.20;1.10;;;20.30;99.90;;;;;;5073824;28;20972;-79
2023/08/08 10:25:27;;;;;;;0.95;0.85;;;20.20;99.90;;;;;;5074862;28;20829;-78
2023/08/08 10:28:13;;;;;;;1.30;1.20;;;20.40;99.90;;;;;;5074236;28;20410;-78
2023/08/08 10:30:54;;;;;;;1.15;0.90;;;20.10;99.90;;;;;;5069007;28;20471;-78
2023/08/08 10:33:25;;;;;;;1.20;1.00;;;20.50;99.90;;;;;;5075378;28;20463;-78
2023/08/08 10:35:58;;;;;;;2.60;1.55;;;20.60;99.90;;;;;;5073944;28;20407;-79
2023/08/08 10:38:26;;;;;;;1.33;1.00;;;20.50;99.90;;;;;;5072971;28;20468;-78
2023/08/08 10:40:58;;;;;;;2.80;1.17;;;20.50;99.90;;;;;;5062554;28;20428;-78
2023/08/08 10:43:28;;;;;;;1.20;1.10;;;20.70;99.90;;;;;;5054076;28;20398;-78
2023/08/08 10:46:00;;;;;;;2.20;1.08;;;20.80;99.90;;;;;;5072655;28;20479;-78
2023/08/08 10:48:26;;;;;;;1.30;1.10;;;20.90;99.90;;;;;;5071501;28;20852;-78
2023/08/08 10:50:54;;;;;;;1.50;0.90;;;20.70;99.90;;;;;;5074518;28;20376;-78
2023/08/08 10:53:24;;;;;;;2.55;1.10;;;20.70;99.90;;;;;;5066353;28;20412;-77
2023/08/08 10:55:58;;;;;;;1.60;1.20;;;21.10;99.90;;;;;;5072001;28;20484;-78
2023/08/08 10:58:35;;;;;;;1.10;1.00;;;20.80;99.90;;;;;;5073544;28;20539;-78
2023/08/08 11:01:01;;;;;;;1.27;1.17;;;21.40;99.90;;;;;;5073253;28;20400;-78
2023/08/08 11:03:29;;;;;;;1.35;1.20;;;21.50;99.90;;;;;;5072136;28;20749;-78
2023/08/08 11:05:55;;;;;;;3.40;1.40;;;21.50;99.90;;;;;;5072872;28;20403;-78
2023/08/08 11:08:22;;;;;;;1.10;0.93;;;21.50;99.90;;;;;;5072345;28;20545;-78
2023/08/08 11:10:53;;;;;;;1.38;1.00;;;21.80;99.90;;;;;;5073050;28;20384;-78
2023/08/08 11:13:19;;;;;;;2.80;1.30;;;21.10;99.90;;;;;;5072203;28;20449;-78
2023/08/08 11:15:45;;;;;;;1.77;1.17;;;21.50;99.90;;;;;;5070230;28;20411;-78
2023/08/08 11:18:10;;;;;;;1.13;0.97;;;20.90;99.90;;;;;;5070644;28;20406;-78
2023/08/08 11:20:37;;;;;;;2.60;1.08;;;21.30;99.90;;;;;;5066531;28;20411;-78
2023/08/08 11:23:10;;;;;;;3.05;1.08;;;21.40;99.90;;;;;;5067969;28;20531;-78
2023/08/08 11:25:36;;;;;;;1.30;1.00;;;21.60;99.90;;;;;;5077629;28;20410;-78
2023/08/08 11:28:02;;;;;;;1.10;1.00;;;21.70;99.90;;;;;;5074416;28;20465;-77
2023/08/08 11:30:30;;;;;;;2.15;1.00;;;21.60;99.90;;;;;;5076193;28;20376;-78
2023/08/08 11:32:56;;;;;;;1.43;1.07;;;21.90;99.90;;;;;;5076949;28;20402;-78
2023/08/08 11:35:23;;;;;;;2.00;1.00;;;21.90;99.90;;;;;;5075252;28;20466;-78
2023/08/08 11:37:51;;;;;;;1.30;1.20;;;21.80;99.90;;;;;;5075895;28;20478;-78
2023/08/08 11:40:17;;;;;;;1.25;1.15;;;21.70;99.90;;;;;;5075264;28;20391;-78
2023/08/08 11:42:44;;;;;;;1.80;1.20;;;21.90;99.90;;;;;;5075235;28;20417;-78
2023/08/08 11:45:13;;;;;;;1.10;1.00;;;22.10;99.90;;;;;;5080236;28;20404;-79
2023/08/08 11:47:40;;;;;;;1.98;1.17;;;22.10;99.90;;;;;;5078098;28;20399;-78
2023/08/08 11:50:09;;;;;;;1.20;1.10;;;21.80;99.90;;;;;;5069602;28;20904;-78
2023/08/08 11:52:42;;;;;;;1.30;1.00;;;22.40;99.90;;;;;;5070511;28;20423;-78
2023/08/08 11:55:11;;;;;;;1.20;1.10;;;23.00;99.90;;;;;;5074634;28;20473;-79
2023/08/08 11:57:40;;;;;;;1.75;1.17;;;22.20;99.90;;;;;;5072748;28;20401;-79
2023/08/08 12:00:08;;;;;;;3.22;1.30;;;23.00;99.90;;;;;;5071211;28;20410;-78
2023/08/08 12:02:35;;;;;;;1.50;1.10;;;22.70;99.90;;;;;;5080824;28;20406;-78
2023/08/08 12:05:05;;;;;;;1.50;1.20;;;22.50;99.90;;;;;;5079070;28;20403;-78
2023/08/08 12:07:33;;;;;;;1.23;1.10;;;22.10;99.90;;;;;;5076352;28;20395;-78
2023/08/08 12:09:59;;;;;;;2.00;1.20;;;22.10;99.90;;;;;;5078174;28;20400;-78
2023/08/08 12:12:26;;;;;;;2.30;1.00;;;22.10;99.90;;;;;;5078736;28;20415;-79
2023/08/08 12:14:54;;;;;;;1.25;1.15;;;22.10;99.90;;;;;;5075764;28;20410;-79
2023/08/08 12:17:21;;;;;;;1.98;1.17;;;22.10;99.90;;;;;;5079210;28;20404;-79
2023/08/08 12:19:48;;;;;;;2.10;1.10;;;21.90;99.90;;;;;;5075566;28;21004;-78
2023/08/08 12:22:14;;;;;;;1.70;1.00;;;21.90;99.90;;;;;;5079687;28;20395;-79
2023/08/08 12:24:39;;;;;;;1.10;1.00;;;22.10;99.90;;;;;;5082300;28;20475;-78
2023/08/08 12:27:05;;;;;;;1.40;1.30;;;22.20;99.90;;;;;;5082541;28;20470;-79
2023/08/08 12:29:31;;;;;;;1.33;0.90;;;22.00;99.90;;;;;;5071480;28;20812;-79
2023/08/08 12:31:57;;;;;;;1.20;1.10;;;22.10;99.90;;;;;;5081149;28;20452;-79
2023/08/08 12:34:22;;;;;;;1.20;1.10;;;22.50;99.90;;;;;;5075836;28;20963;-77
2023/08/08 12:36:48;;;;;;;1.42;1.25;;;22.50;99.90;;;;;;5064801;28;20380;-77
2023/08/08 12:39:14;;;;;;;2.45;1.30;;;22.80;99.90;;;;;;5065937;28;20479;-79
2023/08/08 12:41:39;;;;;;;3.13;1.17;;;22.30;99.90;;;;;;5069827;28;20403;-76
2023/08/08 12:44:07;;;;;;;1.10;1.00;;;21.90;99.90;;;;;;5074494;28;20411;-76